createdAt,value
2018-08-20T00:00:23.384Z,26.3
2018-08-20T00:01:13.441Z,26.3
2018-08-20T00:02:03.553Z,26.3
2018-08-20T00:02:53.321Z,26.3
2018-08-20T00:03:42.799Z,26.3
2018-08-20T00:04:31.121Z,26.3
2018-08-20T00:05:21.827Z,26.3
2018-08-20T00:06:13.059Z,26.3
2018-08-20T00:07:02.734Z,26.3
2018-08-20T00:07:52.507Z,26.3
2018-08-20T00:08:43.570Z,26.3
2018-08-20T00:09:34.103Z,26.3
2018-08-20T00:10:24.077Z,26.3
2018-08-20T00:11:14.238Z,26.3
2018-08-20T00:12:03.447Z,26.3
2018-08-20T00:12:53.818Z,26.3
2018-08-20T00:13:43.284Z,26.3
2018-08-20T00:14:34.230Z,26.3
2018-08-20T00:15:24.322Z,26.3
2018-08-20T00:16:13.825Z,26.3
2018-08-20T00:17:04.602Z,26.3
2018-08-20T00:17:54.371Z,26.3
2018-08-20T00:18:44.227Z,26.3
2018-08-20T00:37:31.936Z,25.8
2018-08-20T00:38:21.256Z,25.8
2018-08-20T00:39:11.580Z,25.8
2018-08-20T00:40:01.952Z,25.8
2018-08-20T00:40:51.693Z,25.8
2018-08-20T00:41:41.506Z,25.8
2018-08-20T00:42:31.566Z,25.8
2018-08-20T00:43:21.862Z,25.8
2018-08-20T00:44:12.743Z,25.9
2018-08-20T00:45:02.067Z,25.9
2018-08-20T00:45:52.531Z,25.9
2018-08-20T00:46:42.462Z,25.9
2018-08-20T00:47:30.905Z,25.9
2018-08-20T00:48:22.410Z,25.9
2018-08-20T00:49:11.315Z,25.9
2018-08-20T00:50:01.975Z,26
2018-08-20T00:50:52.524Z,26
2018-08-20T00:51:42.831Z,26
2018-08-20T00:52:32.470Z,26
2018-08-20T00:53:22.955Z,26
2018-08-20T00:54:13.048Z,26
2018-08-20T00:55:03.098Z,26.1
2018-08-20T00:55:52.658Z,26.1
2018-08-20T00:56:42.674Z,26.1
2018-08-20T00:57:32.179Z,26.1
2018-08-20T00:58:22.849Z,26.1
2018-08-20T00:59:13.420Z,26.1
2018-08-20T01:00:03.290Z,26.1
2018-08-20T01:00:52.217Z,26.1
2018-08-20T01:01:43.159Z,26.1
2018-08-20T01:02:34.004Z,26.1
2018-08-20T01:03:23.786Z,26.1
2018-08-20T01:04:14.086Z,26.1
2018-08-20T01:05:02.964Z,26.1
2018-08-20T01:05:54.426Z,26.1
2018-08-20T01:06:43.928Z,26.1
2018-08-20T01:07:34.351Z,26.1
2018-08-20T01:08:23.789Z,26.1
2018-08-20T01:09:13.617Z,26.1
2018-08-20T01:10:04.224Z,26.1
2018-08-20T01:10:54.537Z,26.1
2018-08-20T01:11:44.076Z,26.1
2018-08-20T01:12:33.263Z,26.1
2018-08-20T01:13:24.149Z,26.1
2018-08-20T01:14:13.695Z,26.1
2018-08-20T01:15:04.318Z,26.1
2018-08-20T01:15:54.427Z,26.1
2018-08-20T01:16:43.420Z,26.1
2018-08-20T01:17:33.837Z,26.1
2018-08-20T01:18:24.580Z,26.1
2018-08-20T01:19:14.126Z,26.1
2018-08-20T01:20:03.952Z,26.1
2018-08-20T01:20:55.038Z,26.1
2018-08-20T01:21:45.628Z,26.1
2018-08-20T01:22:34.350Z,26.1
2018-08-20T01:23:25.244Z,26.1
2018-08-20T01:24:15.598Z,26.1
2018-08-20T01:25:04.843Z,26.1
2018-08-20T01:25:55.491Z,26.1
2018-08-20T01:26:45.776Z,26.1
2018-08-20T01:27:36.248Z,26.1
2018-08-20T01:28:25.378Z,26.1
2018-08-20T01:29:16.050Z,26.1
2018-08-20T01:30:04.962Z,26.1
2018-08-20T01:30:56.363Z,26.1
2018-08-20T01:31:45.365Z,26.1
2018-08-20T01:32:35.985Z,26.1
2018-08-20T01:33:25.749Z,26.1
2018-08-20T01:34:16.442Z,26.1
2018-08-20T01:35:05.729Z,26
2018-08-20T01:35:56.274Z,26
2018-08-20T01:36:46.069Z,26
2018-08-20T01:37:35.271Z,26
2018-08-20T01:38:26.499Z,26
2018-08-20T01:39:16.794Z,26.1
2018-08-20T01:40:05.404Z,26.1
2018-08-20T01:40:56.642Z,26
2018-08-20T01:41:46.628Z,26
2018-08-20T01:42:36.741Z,26
2018-08-20T01:43:26.506Z,26
2018-08-20T01:44:17.131Z,26
2018-08-20T01:45:06.941Z,26
2018-08-20T01:45:55.867Z,26
2018-08-20T01:46:46.475Z,26
2018-08-20T01:47:37.439Z,25.9
2018-08-20T01:48:27.451Z,26
2018-08-20T01:49:17.236Z,25.9
2018-08-20T01:50:06.860Z,25.9
2018-08-20T01:50:57.413Z,25.9
2018-08-20T01:51:47.193Z,26
2018-08-20T01:52:36.909Z,26
2018-08-20T01:53:27.054Z,25.9
2018-08-20T01:54:17.909Z,25.9
2018-08-20T01:55:07.667Z,25.9
2018-08-20T01:55:57.700Z,25.9
2018-08-20T01:56:48.116Z,25.9
2018-08-20T01:57:38.392Z,25.9
2018-08-20T01:58:28.233Z,25.9
2018-08-20T01:59:17.739Z,25.9
2018-08-20T02:00:08.714Z,25.9
2018-08-20T02:00:57.057Z,25.9
2018-08-20T02:01:46.887Z,25.9
2018-08-20T02:02:37.742Z,25.9
2018-08-20T02:03:26.872Z,25.9
2018-08-20T02:04:17.417Z,25.9
2018-08-20T02:05:08.011Z,25.9
2018-08-20T02:05:57.452Z,25.9
2018-08-20T02:06:46.467Z,25.9
2018-08-20T02:07:36.894Z,25.9
2018-08-20T02:08:27.553Z,25.9
2018-08-20T02:09:18.127Z,25.9
2018-08-20T02:10:08.156Z,25.9
2018-08-20T02:10:57.577Z,25.9
2018-08-20T02:11:48.484Z,25.9
2018-08-20T02:12:37.727Z,25.9
2018-08-20T02:13:27.572Z,25.8
2018-08-20T02:14:17.167Z,25.9
2018-08-20T02:15:08.595Z,25.8
2018-08-20T02:15:57.909Z,25.8
2018-08-20T02:16:48.542Z,25.8
2018-08-20T02:17:38.372Z,25.9
2018-08-20T02:18:28.384Z,25.8
2018-08-20T02:19:18.208Z,25.9
2018-08-20T02:20:08.503Z,25.8
2018-08-20T02:20:56.693Z,25.8
2018-08-20T02:21:48.524Z,25.8
2018-08-20T02:22:38.713Z,25.8
2018-08-20T02:23:29.046Z,25.8
2018-08-20T02:24:19.192Z,25.8
2018-08-20T02:25:08.959Z,25.8
2018-08-20T02:25:58.441Z,25.8
2018-08-20T02:26:50.000Z,25.8
2018-08-20T02:27:39.185Z,25.8
2018-08-20T02:28:29.861Z,25.8
2018-08-20T02:29:18.560Z,25.8
2018-08-20T02:30:10.480Z,25.8
2018-08-20T02:31:00.455Z,25.8
2018-08-20T02:31:50.219Z,25.8
2018-08-20T02:32:40.860Z,25.8
2018-08-20T02:33:29.860Z,25.8
2018-08-20T02:34:19.985Z,25.8
2018-08-20T02:35:10.512Z,25.8
2018-08-20T02:36:00.395Z,25.8
2018-08-20T02:36:50.988Z,25.8
2018-08-20T02:37:40.997Z,25.8
2018-08-20T02:38:30.809Z,25.8
2018-08-20T02:39:20.638Z,25.8
2018-08-20T02:40:11.066Z,25.8
2018-08-20T02:41:00.456Z,25.8
2018-08-20T02:41:51.137Z,25.8
2018-08-20T02:42:40.933Z,25.8
2018-08-20T02:43:30.987Z,25.8
2018-08-20T02:44:20.776Z,25.8
2018-08-20T02:45:10.891Z,25.8
2018-08-20T02:46:00.648Z,25.8
2018-08-20T02:46:50.137Z,25.8
2018-08-20T02:47:41.594Z,25.8
2018-08-20T02:48:31.602Z,25.8
2018-08-20T02:49:22.277Z,25.8
2018-08-20T02:50:12.306Z,25.8
2018-08-20T02:51:02.046Z,25.8
2018-08-20T02:51:52.406Z,25.8
2018-08-20T02:52:42.400Z,25.8
2018-08-20T02:53:32.179Z,25.8
2018-08-20T02:54:22.545Z,25.8
2018-08-20T02:55:11.527Z,25.8
2018-08-20T02:56:02.661Z,25.8
2018-08-20T02:56:52.228Z,25.8
2018-08-20T02:57:42.204Z,25.8
2018-08-20T02:58:32.284Z,25.7
2018-08-20T02:59:22.918Z,25.7
2018-08-20T03:00:12.449Z,25.7
2018-08-20T03:01:02.825Z,25.7
2018-08-20T03:01:51.952Z,25.7
2018-08-20T03:02:42.341Z,25.8
2018-08-20T03:03:32.879Z,25.8
2018-08-20T03:04:22.764Z,25.8
2018-08-20T03:05:13.173Z,25.8
2018-08-20T03:06:02.593Z,25.8
2018-08-20T03:06:53.493Z,25.8
2018-08-20T03:07:42.592Z,25.7
2018-08-20T03:08:33.414Z,25.8
2018-08-20T03:09:23.018Z,25.7
2018-08-20T03:10:12.474Z,25.7
2018-08-20T03:11:03.031Z,25.7
2018-08-20T03:11:53.647Z,25.7
2018-08-20T03:12:43.732Z,25.7
2018-08-20T03:13:33.795Z,25.7
2018-08-20T03:14:23.867Z,25.7
2018-08-20T03:15:13.360Z,25.7
2018-08-20T03:16:03.800Z,25.7
2018-08-20T03:16:53.378Z,25.7
2018-08-20T03:17:44.272Z,25.7
2018-08-20T03:18:32.901Z,25.7
2018-08-20T03:19:23.995Z,25.7
2018-08-20T03:20:14.670Z,25.7
2018-08-20T03:21:05.061Z,25.6
2018-08-20T03:21:54.441Z,25.7
2018-08-20T03:22:44.271Z,25.6
2018-08-20T03:23:34.826Z,25.7
2018-08-20T03:24:25.152Z,25.7
2018-08-20T03:25:29.669Z,25.7
2018-08-20T03:26:05.075Z,25.7
2018-08-20T03:26:55.372Z,25.7
2018-08-20T03:27:45.377Z,25.6
2018-08-20T03:28:34.645Z,25.7
2018-08-20T03:29:24.923Z,25.6
2018-08-20T03:30:15.362Z,25.6
2018-08-20T03:31:05.737Z,25.6
2018-08-20T03:31:55.792Z,25.6
2018-08-20T03:32:44.972Z,25.6
2018-08-20T03:33:35.647Z,25.6
2018-08-20T03:34:25.973Z,25.6
2018-08-20T03:35:16.046Z,25.6
2018-08-20T03:36:05.956Z,25.6
2018-08-20T03:36:55.632Z,25.6
2018-08-20T03:37:46.187Z,25.6
2018-08-20T03:38:35.983Z,25.6
2018-08-20T03:39:26.289Z,25.6
2018-08-20T03:40:15.867Z,25.6
2018-08-20T03:41:05.930Z,25.6
2018-08-20T03:41:56.469Z,25.6
2018-08-20T03:42:46.298Z,25.6
2018-08-20T03:43:36.567Z,25.6
2018-08-20T03:44:26.420Z,25.6
2018-08-20T03:45:16.531Z,25.6
2018-08-20T03:46:06.885Z,25.6
2018-08-20T03:46:56.626Z,25.6
2018-08-20T03:47:46.423Z,25.6
2018-08-20T03:48:36.790Z,25.6
2018-08-20T03:49:25.735Z,25.6
2018-08-20T03:50:16.900Z,25.6
2018-08-20T03:51:07.013Z,25.6
2018-08-20T03:51:57.025Z,25.6
2018-08-20T03:52:46.837Z,25.6
2018-08-20T03:53:37.459Z,25.6
2018-08-20T03:54:26.963Z,25.6
2018-08-20T03:55:15.080Z,25.6
2018-08-20T03:56:05.349Z,25.6
2018-08-20T03:56:56.196Z,25.6
2018-08-20T03:57:45.526Z,25.6
2018-08-20T03:58:35.534Z,25.6
2018-08-20T03:59:26.625Z,25.6
2018-08-20T04:00:16.018Z,25.6
2018-08-20T04:01:05.480Z,25.6
2018-08-20T04:01:55.766Z,25.6
2018-08-20T04:02:46.177Z,25.6
2018-08-20T04:03:37.131Z,25.6
2018-08-20T04:04:28.297Z,25.6
2018-08-20T04:05:18.003Z,25.6
2018-08-20T04:06:08.639Z,25.6
2018-08-20T04:06:57.582Z,25.6
2018-08-20T04:07:48.278Z,25.6
2018-08-20T04:08:38.333Z,25.5
2018-08-20T04:09:28.021Z,25.6
2018-08-20T04:10:18.424Z,25.6
2018-08-20T04:11:08.190Z,25.5
2018-08-20T04:11:57.696Z,25.5
2018-08-20T04:12:48.340Z,25.5
2018-08-20T04:13:38.101Z,25.5
2018-08-20T04:14:28.514Z,25.5
2018-08-20T04:15:16.802Z,25.5
2018-08-20T04:16:09.150Z,25.5
2018-08-20T04:16:59.084Z,25.5
2018-08-20T04:17:49.239Z,25.5
2018-08-20T04:18:39.060Z,25.5
2018-08-20T04:19:29.112Z,25.6
2018-08-20T04:20:18.631Z,25.5
2018-08-20T04:21:08.989Z,25.5
2018-08-20T04:21:59.077Z,25.6
2018-08-20T04:22:49.701Z,25.6
2018-08-20T04:23:39.212Z,25.6
2018-08-20T04:24:29.291Z,25.6
2018-08-20T04:25:18.768Z,25.6
2018-08-20T04:26:09.960Z,25.6
2018-08-20T04:26:59.725Z,25.6
2018-08-20T04:27:49.282Z,25.6
2018-08-20T04:28:39.917Z,25.6
2018-08-20T04:29:30.262Z,25.6
2018-08-20T04:30:19.958Z,25.6
2018-08-20T04:31:09.816Z,25.6
2018-08-20T04:32:00.146Z,25.6
2018-08-20T04:32:49.956Z,25.6
2018-08-20T04:33:39.695Z,25.6
2018-08-20T04:34:30.328Z,25.6
2018-08-20T04:35:19.839Z,25.6
2018-08-20T04:36:10.188Z,25.6
2018-08-20T04:37:00.891Z,25.6
2018-08-20T04:37:50.618Z,25.6
2018-08-20T04:38:39.848Z,25.6
2018-08-20T04:39:30.186Z,25.6
2018-08-20T04:40:21.021Z,25.6
2018-08-20T04:41:10.847Z,25.6
2018-08-20T04:42:01.023Z,25.6
2018-08-20T04:42:50.361Z,25.6
2018-08-20T04:43:41.051Z,25.6
2018-08-20T04:44:30.547Z,25.6
2018-08-20T04:45:21.117Z,25.6
2018-08-20T04:46:11.203Z,25.6
2018-08-20T04:47:00.703Z,25.6
2018-08-20T04:47:51.333Z,25.6
2018-08-20T04:48:41.468Z,25.6
2018-08-20T05:06:45.125Z,25.3
2018-08-20T05:07:34.031Z,25.3
2018-08-20T05:08:23.886Z,25.3
2018-08-20T05:09:15.288Z,25.4
2018-08-20T05:10:06.136Z,25.4
2018-08-20T05:10:55.359Z,25.4
2018-08-20T05:11:44.836Z,25.4
2018-08-20T05:12:34.912Z,25.4
2018-08-20T05:13:25.532Z,25.4
2018-08-20T05:14:15.618Z,25.4
2018-08-20T05:15:05.216Z,25.4
2018-08-20T05:15:55.799Z,25.4
2018-08-20T05:16:45.376Z,25.5
2018-08-20T05:17:35.673Z,25.5
2018-08-20T05:18:25.420Z,25.6
2018-08-20T05:19:16.099Z,25.6
2018-08-20T05:20:05.591Z,25.6
2018-08-20T05:20:55.650Z,25.6
2018-08-20T05:21:46.029Z,25.6
2018-08-20T05:22:36.070Z,25.6
2018-08-20T05:23:25.539Z,25.7
2018-08-20T05:24:16.445Z,25.7
2018-08-20T05:25:06.559Z,25.7
2018-08-20T05:25:56.279Z,25.7
2018-08-20T05:26:46.397Z,25.7
2018-08-20T05:27:36.692Z,25.7
2018-08-20T05:28:26.748Z,25.7
2018-08-20T05:29:15.292Z,25.7
2018-08-20T05:30:06.899Z,25.8
2018-08-20T05:30:56.954Z,25.7
2018-08-20T05:31:46.746Z,25.8
2018-08-20T05:32:37.119Z,25.8
2018-08-20T05:33:27.426Z,25.8
2018-08-20T05:34:16.284Z,25.8
2018-08-20T05:35:07.198Z,25.8
2018-08-20T05:35:56.786Z,25.8
2018-08-20T05:36:46.820Z,25.8
2018-08-20T05:37:36.964Z,25.8
2018-08-20T05:38:27.439Z,25.8
2018-08-20T05:39:17.538Z,25.8
2018-08-20T05:40:07.623Z,25.9
2018-08-20T05:40:56.535Z,25.8
2018-08-20T05:41:47.160Z,25.9
2018-08-20T05:42:37.805Z,25.9
2018-08-20T05:43:27.935Z,25.9
2018-08-20T05:44:17.337Z,25.9
2018-08-20T05:45:07.821Z,25.9
2018-08-20T05:45:57.830Z,25.8
2018-08-20T05:46:48.148Z,25.8
2018-08-20T05:47:38.253Z,25.8
2018-08-20T05:48:28.020Z,25.8
2018-08-20T05:49:18.033Z,25.9
2018-08-20T05:50:08.355Z,25.9
2018-08-20T05:50:58.438Z,25.8
2018-08-20T05:51:48.358Z,25.8
2018-08-20T05:52:40.919Z,25.9
2018-08-20T05:53:28.788Z,25.8
2018-08-20T05:54:15.040Z,25.8
2018-08-20T05:55:08.860Z,25.8
2018-08-20T05:55:58.680Z,25.8
2018-08-20T05:56:49.005Z,25.8
2018-08-20T05:57:38.483Z,25.8
2018-08-20T05:58:28.865Z,25.9
2018-08-20T05:59:20.003Z,25.9
2018-08-20T06:00:09.360Z,25.9
2018-08-20T06:00:58.214Z,25.9
2018-08-20T06:01:49.130Z,25.9
2018-08-20T06:02:38.875Z,25.9
2018-08-20T06:03:28.416Z,25.9
2018-08-20T06:04:18.830Z,25.9
2018-08-20T06:05:09.699Z,25.9
2018-08-20T06:05:59.172Z,25.9
2018-08-20T06:06:49.819Z,25.9
2018-08-20T06:07:39.612Z,25.9
2018-08-20T06:08:29.973Z,25.9
2018-08-20T06:09:19.702Z,25.9
2018-08-20T06:10:09.844Z,25.9
2018-08-20T06:10:59.826Z,25.9
2018-08-20T06:11:49.017Z,25.9
2018-08-20T06:12:39.907Z,26
2018-08-20T06:13:29.702Z,26
2018-08-20T06:14:20.004Z,26
2018-08-20T06:15:10.721Z,26
2018-08-20T06:16:00.212Z,26
2018-08-20T06:16:50.243Z,26
2018-08-20T06:17:40.284Z,26
2018-08-20T06:18:29.500Z,26.1
2018-08-20T06:19:19.919Z,26.1
2018-08-20T06:20:09.714Z,26.1
2018-08-20T06:21:00.274Z,26.1
2018-08-20T06:21:50.389Z,26.1
2018-08-20T06:22:42.092Z,26.1
2018-08-20T06:23:31.117Z,26.1
2018-08-20T06:24:20.534Z,26.1
2018-08-20T06:25:11.658Z,26.2
2018-08-20T06:26:00.721Z,26.2
2018-08-20T06:26:51.057Z,26.3
2018-08-20T06:27:40.874Z,26.3
2018-08-20T06:28:31.637Z,26.3
2018-08-20T06:29:21.181Z,26.3
2018-08-20T06:30:11.322Z,26.3
2018-08-20T06:31:01.721Z,26.3
2018-08-20T06:31:50.896Z,26.3
2018-08-20T06:32:41.540Z,26.3
2018-08-20T06:33:31.298Z,26.3
2018-08-20T06:34:21.895Z,26.3
2018-08-20T06:35:11.650Z,26.3
2018-08-20T06:36:02.056Z,26.3
2018-08-20T06:36:52.221Z,26.4
2018-08-20T06:37:42.206Z,26.4
2018-08-20T06:38:31.801Z,26.4
2018-08-20T06:39:21.740Z,26.4
2018-08-20T06:40:11.809Z,26.4
2018-08-20T06:41:02.161Z,26.4
2018-08-20T06:41:51.798Z,26.4
2018-08-20T06:42:41.993Z,26.4
2018-08-20T06:43:31.787Z,26.4
2018-08-20T06:44:22.353Z,26.4
2018-08-20T06:45:11.507Z,26.4
2018-08-20T06:46:02.208Z,26.5
2018-08-20T06:46:52.580Z,26.5
2018-08-20T06:47:42.295Z,26.5
2018-08-20T06:48:32.637Z,26.5
2018-08-20T06:49:23.032Z,26.5
2018-08-20T06:50:12.810Z,26.5
2018-08-20T06:51:02.875Z,26.5
2018-08-20T06:51:53.295Z,26.6
2018-08-20T06:52:42.545Z,26.6
2018-08-20T06:53:32.799Z,26.6
2018-08-20T06:54:23.294Z,26.6
2018-08-20T06:55:13.543Z,26.6
2018-08-20T06:56:02.740Z,26.6
2018-08-20T06:56:52.623Z,26.6
2018-08-20T06:57:43.403Z,26.6
2018-08-20T06:58:33.449Z,26.7
2018-08-20T06:59:23.274Z,26.7
2018-08-20T07:00:12.730Z,26.8
2018-08-20T07:01:03.592Z,26.7
2018-08-20T07:01:54.064Z,26.8
2018-08-20T07:02:44.084Z,26.8
2018-08-20T07:03:33.882Z,26.7
2018-08-20T07:04:23.724Z,26.8
2018-08-20T07:05:13.869Z,26.8
2018-08-20T07:06:04.155Z,26.8
2018-08-20T07:06:53.943Z,26.8
2018-08-20T07:07:44.166Z,26.8
2018-08-20T07:08:34.287Z,26.8
2018-08-20T07:09:24.669Z,26.8
2018-08-20T07:10:14.823Z,26.8
2018-08-20T07:11:04.789Z,26.8
2018-08-20T07:11:55.490Z,26.8
2018-08-20T07:12:44.923Z,26.8
2018-08-20T07:13:35.044Z,26.8
2018-08-20T07:14:25.098Z,26.8
2018-08-20T07:15:15.148Z,26.8
2018-08-20T07:16:05.241Z,26.8
2018-08-20T07:16:54.149Z,26.8
2018-08-20T07:17:44.956Z,26.9
2018-08-20T07:18:34.616Z,26.9
2018-08-20T07:19:25.495Z,26.9
2018-08-20T07:20:14.952Z,26.9
2018-08-20T07:21:04.776Z,26.9
2018-08-20T07:21:55.313Z,26.8
2018-08-20T07:22:45.176Z,26.9
2018-08-20T07:23:36.903Z,26.9
2018-08-20T07:24:24.883Z,26.9
2018-08-20T07:25:15.010Z,26.9
2018-08-20T07:26:05.141Z,26.9
2018-08-20T07:26:55.773Z,26.9
2018-08-20T07:27:45.288Z,26.9
2018-08-20T07:28:35.870Z,26.9
2018-08-20T07:29:25.355Z,26.9
2018-08-20T07:30:15.720Z,26.9
2018-08-20T07:31:06.335Z,26.9
2018-08-20T07:31:55.897Z,26.9
2018-08-20T07:32:45.625Z,26.9
2018-08-20T07:33:36.545Z,26.9
2018-08-20T07:34:26.253Z,26.9
2018-08-20T07:35:15.797Z,26.9
2018-08-20T07:36:06.124Z,26.9
2018-08-20T07:36:56.445Z,26.9
2018-08-20T07:37:46.284Z,26.9
2018-08-20T07:38:36.927Z,26.9
2018-08-20T07:39:26.683Z,26.9
2018-08-20T07:40:17.074Z,26.9
2018-08-20T07:41:07.039Z,27
2018-08-20T07:41:56.822Z,27
2018-08-20T07:42:47.179Z,27
2018-08-20T07:43:36.666Z,27
2018-08-20T07:44:27.276Z,27
2018-08-20T07:45:17.395Z,27.1
2018-08-20T07:46:07.453Z,27.1
2018-08-20T07:46:57.218Z,27.1
2018-08-20T07:47:47.521Z,27.1
2018-08-20T07:48:37.324Z,27.1
2018-08-20T07:49:27.449Z,27.1
2018-08-20T07:50:17.581Z,27.1
2018-08-20T07:51:08.098Z,27.1
2018-08-20T07:51:58.176Z,27.1
2018-08-20T07:52:47.972Z,27.1
2018-08-20T07:53:37.954Z,27.1
2018-08-20T07:54:28.069Z,27.1
2018-08-20T07:55:17.556Z,27.1
2018-08-20T07:56:08.146Z,27.1
2018-08-20T07:56:57.898Z,27.1
2018-08-20T07:57:47.711Z,27.1
2018-08-20T07:58:38.079Z,27.1
2018-08-20T07:59:28.408Z,27.1
2018-08-20T08:00:18.443Z,27.1
2018-08-20T08:01:07.984Z,27.1
2018-08-20T08:01:58.593Z,27.1
2018-08-20T08:02:48.711Z,27.1
2018-08-20T08:03:38.441Z,27.1
2018-08-20T08:04:28.780Z,27.1
2018-08-20T08:05:18.851Z,27.1
2018-08-20T08:06:08.428Z,27.1
2018-08-20T08:06:58.703Z,27.1
2018-08-20T08:07:48.493Z,27.1
2018-08-20T08:08:38.836Z,27.1
2018-08-20T08:09:28.442Z,27.1
2018-08-20T08:10:19.283Z,27.1
2018-08-20T08:11:08.768Z,27.1
2018-08-20T08:11:59.381Z,27.1
2018-08-20T08:12:49.432Z,27.1
2018-08-20T08:13:39.215Z,27.1
2018-08-20T08:14:29.672Z,27.2
2018-08-20T08:15:19.387Z,27.1
2018-08-20T08:16:09.008Z,27.2
2018-08-20T08:16:59.832Z,27.2
2018-08-20T08:17:50.022Z,27.2
2018-08-20T08:18:39.397Z,27.2
2018-08-20T08:19:29.542Z,27.2
2018-08-20T08:20:19.801Z,27.2
2018-08-20T08:21:09.298Z,27.2
2018-08-20T08:21:59.932Z,27.2
2018-08-20T08:22:49.974Z,27.3
2018-08-20T08:23:40.394Z,27.3
2018-08-20T08:24:29.281Z,27.3
2018-08-20T08:25:20.334Z,27.3
2018-08-20T08:26:10.301Z,27.3
2018-08-20T08:27:00.607Z,27.3
2018-08-20T08:27:50.389Z,27.3
2018-08-20T08:28:40.454Z,27.3
2018-08-20T08:29:30.058Z,27.3
2018-08-20T08:30:20.596Z,27.3
2018-08-20T08:31:10.972Z,27.3
2018-08-20T08:32:00.194Z,27.3
2018-08-20T08:32:50.777Z,27.3
2018-08-20T08:33:41.114Z,27.3
2018-08-20T08:34:31.145Z,27.3
2018-08-20T08:35:20.648Z,27.3
2018-08-20T08:36:10.393Z,27.3
2018-08-20T08:37:01.031Z,27.3
2018-08-20T08:37:50.807Z,27.3
2018-08-20T08:38:41.467Z,27.3
2018-08-20T08:39:31.619Z,27.3
2018-08-20T08:40:20.579Z,27.3
2018-08-20T08:41:11.679Z,27.3
2018-08-20T08:42:01.296Z,27.3
2018-08-20T08:42:51.559Z,27.3
2018-08-20T08:43:41.829Z,27.3
2018-08-20T08:44:31.894Z,27.3
2018-08-20T08:45:21.151Z,27.4
2018-08-20T08:46:11.771Z,27.4
2018-08-20T08:47:01.641Z,27.4
2018-08-20T08:47:51.893Z,27.4
2018-08-20T08:48:42.263Z,27.4
2018-08-20T08:49:32.358Z,27.4
2018-08-20T08:50:22.179Z,27.4
2018-08-20T08:51:12.503Z,27.4
2018-08-20T08:52:02.338Z,27.4
2018-08-20T08:52:52.098Z,27.4
2018-08-20T08:53:42.703Z,27.4
2018-08-20T08:54:32.745Z,27.4
2018-08-20T08:55:22.780Z,27.4
2018-08-20T08:56:12.870Z,27.4
2018-08-20T08:57:02.983Z,27.4
2018-08-20T08:57:51.325Z,27.4
2018-08-20T08:58:43.127Z,27.4
2018-08-20T08:59:33.132Z,27.4
2018-08-20T09:00:23.582Z,27.5
2018-08-20T09:01:13.562Z,27.5
2018-08-20T09:02:03.374Z,27.4
2018-08-20T09:02:53.407Z,27.4
2018-08-20T09:03:43.470Z,27.5
2018-08-20T09:04:33.597Z,27.5
2018-08-20T09:21:12.131Z,27.3
2018-08-20T09:22:02.089Z,27.3
2018-08-20T09:22:52.744Z,27.3
2018-08-20T09:23:42.794Z,27.3
2018-08-20T09:24:32.824Z,27.3
2018-08-20T09:25:22.901Z,27.3
2018-08-20T09:26:12.659Z,27.3
2018-08-20T09:27:03.005Z,27.3
2018-08-20T09:27:53.076Z,27.4
2018-08-20T09:28:42.586Z,27.4
2018-08-20T09:29:32.752Z,27.4
2018-08-20T09:30:23.351Z,27.4
2018-08-20T09:31:12.871Z,27.4
2018-08-20T09:32:02.903Z,27.4
2018-08-20T09:32:53.044Z,27.4
2018-08-20T09:33:43.431Z,27.4
2018-08-20T09:34:32.856Z,27.4
2018-08-20T09:35:23.250Z,27.4
2018-08-20T09:36:12.773Z,27.5
2018-08-20T09:37:03.593Z,27.5
2018-08-20T09:37:53.431Z,27.5
2018-08-20T09:38:43.943Z,27.5
2018-08-20T09:39:33.528Z,27.5
2018-08-20T09:40:23.627Z,27.5
2018-08-20T09:41:13.491Z,27.6
2018-08-20T09:42:04.062Z,27.6
2018-08-20T09:42:54.121Z,27.6
2018-08-20T09:43:44.954Z,27.6
2018-08-20T09:44:33.696Z,27.6
2018-08-20T09:45:24.000Z,27.6
2018-08-20T09:46:13.570Z,27.6
2018-08-20T09:47:03.888Z,27.6
2018-08-20T09:47:54.633Z,27.6
2018-08-20T09:48:44.765Z,27.6
2018-08-20T09:49:34.829Z,27.6
2018-08-20T09:50:24.887Z,27.6
2018-08-20T09:51:14.677Z,27.6
2018-08-20T09:52:04.846Z,27.6
2018-08-20T09:52:54.600Z,27.6
2018-08-20T09:53:45.184Z,27.6
2018-08-20T09:54:35.171Z,27.6
2018-08-20T09:55:25.271Z,27.6
2018-08-20T09:56:15.029Z,27.6
2018-08-20T09:57:05.395Z,27.6
2018-08-20T09:57:55.271Z,27.6
2018-08-20T09:58:45.252Z,27.7
2018-08-20T09:59:35.603Z,27.7
2018-08-20T10:00:25.173Z,27.7
2018-08-20T10:01:15.699Z,27.7
2018-08-20T10:02:05.776Z,27.7
2018-08-20T10:02:55.557Z,27.7
2018-08-20T10:03:45.912Z,27.8
2018-08-20T10:04:35.999Z,27.8
2018-08-20T10:05:25.769Z,27.8
2018-08-20T10:06:15.654Z,27.7
2018-08-20T10:07:06.261Z,27.7
2018-08-20T10:07:56.302Z,27.7
2018-08-20T10:08:46.322Z,27.7
2018-08-20T10:09:37.395Z,27.7
2018-08-20T10:10:26.354Z,27.7
2018-08-20T10:11:16.432Z,27.7
2018-08-20T10:12:06.515Z,27.7
2018-08-20T10:12:55.844Z,27.7
2018-08-20T10:13:46.451Z,27.7
2018-08-20T10:14:36.545Z,27.7
2018-08-20T10:15:26.601Z,27.7
2018-08-20T10:16:16.661Z,27.7
2018-08-20T10:17:06.785Z,27.7
2018-08-20T10:17:56.518Z,27.7
2018-08-20T10:18:47.279Z,27.8
2018-08-20T10:19:37.233Z,27.8
2018-08-20T10:20:26.987Z,27.7
2018-08-20T10:21:16.792Z,27.8
2018-08-20T10:22:07.124Z,27.7
2018-08-20T10:22:57.209Z,27.8
2018-08-20T10:23:47.206Z,27.8
2018-08-20T10:24:37.821Z,27.8
2018-08-20T10:25:27.813Z,27.8
2018-08-20T10:26:17.386Z,27.8
2018-08-20T10:27:07.776Z,27.8
2018-08-20T10:27:57.811Z,27.8
2018-08-20T10:28:47.910Z,27.8
2018-08-20T10:29:37.905Z,27.8
2018-08-20T10:30:27.738Z,27.8
2018-08-20T10:31:18.061Z,27.8
2018-08-20T10:32:08.768Z,27.7
2018-08-20T10:32:58.193Z,27.7
2018-08-20T10:33:48.208Z,27.7
2018-08-20T10:34:38.311Z,27.7
2018-08-20T10:35:28.110Z,27.7
2018-08-20T10:36:18.145Z,27.7
2018-08-20T10:37:08.514Z,27.7
2018-08-20T10:38:02.618Z,27.7
2018-08-20T10:38:48.691Z,27.7
2018-08-20T10:39:38.710Z,27.7
2018-08-20T10:40:28.470Z,27.7
2018-08-20T10:41:18.650Z,27.7
2018-08-20T10:42:08.717Z,27.7
2018-08-20T10:42:58.465Z,27.7
2018-08-20T10:43:49.501Z,27.7
2018-08-20T10:44:39.195Z,27.7
2018-08-20T10:45:28.965Z,27.7
2018-08-20T10:46:18.782Z,27.7
2018-08-20T10:47:09.104Z,27.6
2018-08-20T10:47:59.435Z,27.6
2018-08-20T10:48:49.222Z,27.6
2018-08-20T10:49:39.556Z,27.6
2018-08-20T10:50:29.639Z,27.6
2018-08-20T10:51:19.719Z,27.6
2018-08-20T10:52:09.207Z,27.6
2018-08-20T10:52:58.779Z,27.6
2018-08-20T10:53:48.777Z,27.6
2018-08-20T10:54:39.407Z,27.6
2018-08-20T10:55:29.282Z,27.6
2018-08-20T10:56:20.981Z,27.6
2018-08-20T10:57:09.367Z,27.6
2018-08-20T10:57:59.927Z,27.6
2018-08-20T10:58:49.727Z,27.6
2018-08-20T10:59:40.323Z,27.6
2018-08-20T11:00:30.330Z,27.6
2018-08-20T11:01:20.151Z,27.6
2018-08-20T11:02:12.749Z,27.6
2018-08-20T11:03:00.530Z,27.6
2018-08-20T11:03:50.590Z,27.6
2018-08-20T11:04:40.133Z,27.6
2018-08-20T11:05:30.727Z,27.6
2018-08-20T11:06:20.522Z,27.6
2018-08-20T11:07:11.068Z,27.6
2018-08-20T11:08:00.902Z,27.6
2018-08-20T11:08:51.009Z,27.6
2018-08-20T11:09:40.618Z,27.6
2018-08-20T11:10:31.158Z,27.6
2018-08-20T11:11:21.240Z,27.6
2018-08-20T11:12:11.236Z,27.5
2018-08-20T11:13:00.303Z,27.6
2018-08-20T11:13:51.023Z,27.6
2018-08-20T11:14:41.273Z,27.6
2018-08-20T11:15:30.481Z,27.6
2018-08-20T11:16:21.563Z,27.6
2018-08-20T11:17:10.873Z,27.5
2018-08-20T11:18:01.806Z,27.6
2018-08-20T11:18:53.045Z,27.6
2018-08-20T11:19:41.653Z,27.6
2018-08-20T11:20:31.489Z,27.5
2018-08-20T11:21:21.746Z,27.5
2018-08-20T11:22:11.561Z,27.5
2018-08-20T11:23:01.970Z,27.5
2018-08-20T11:23:51.680Z,27.5
2018-08-20T11:24:41.540Z,27.5
2018-08-20T11:25:32.105Z,27.5
2018-08-20T11:26:21.174Z,27.5
2018-08-20T11:27:12.534Z,27.5
2018-08-20T11:28:02.319Z,27.5
2018-08-20T11:28:52.378Z,27.5
2018-08-20T11:29:41.875Z,27.5
2018-08-20T11:30:32.515Z,27.5
2018-08-20T11:31:22.266Z,27.5
2018-08-20T11:32:12.365Z,27.5
2018-08-20T11:33:02.425Z,27.5
2018-08-20T11:33:52.722Z,27.5
2018-08-20T11:34:42.896Z,27.5
2018-08-20T11:35:33.130Z,27.5
2018-08-20T11:36:22.899Z,27.5
2018-08-20T11:37:13.249Z,27.5
2018-08-20T11:38:03.284Z,27.5
2018-08-20T11:38:53.063Z,27.4
2018-08-20T11:39:43.153Z,27.5
2018-08-20T11:40:33.454Z,27.4
2018-08-20T11:41:23.485Z,27.4
2018-08-20T11:42:13.070Z,27.4
2018-08-20T11:43:03.669Z,27.4
2018-08-20T11:43:53.775Z,27.4
2018-08-20T11:44:43.529Z,27.4
2018-08-20T11:45:33.864Z,27.4
2018-08-20T11:46:24.129Z,27.4
2018-08-20T11:47:14.033Z,27.4
2018-08-20T11:48:03.792Z,27.4
2018-08-20T11:48:54.132Z,27.4
2018-08-20T11:49:43.900Z,27.4
2018-08-20T11:50:33.801Z,27.4
2018-08-20T11:51:24.354Z,27.4
2018-08-20T11:52:14.149Z,27.4
2018-08-20T11:53:03.739Z,27.4
2018-08-20T11:53:53.766Z,27.4
2018-08-20T11:54:43.886Z,27.4
2018-08-20T11:55:34.514Z,27.4
2018-08-20T11:56:24.835Z,27.4
2018-08-20T11:57:14.313Z,27.3
2018-08-20T11:58:04.397Z,27.3
2018-08-20T11:58:54.055Z,27.3